createdAt,value
2019-01-19T00:01:03.166Z,10.33
2019-01-19T00:04:18.108Z,13.43
2019-01-19T00:07:35.775Z,8.60
2019-01-19T00:10:50.298Z,8.60
2019-01-19T00:14:21.563Z,11.77
2019-01-19T00:17:38.389Z,12.27
2019-01-19T00:21:03.124Z,12.33
2019-01-19T00:24:18.878Z,10.13
2019-01-19T00:27:42.176Z,10.60
2019-01-19T00:30:50.570Z,11.00
2019-01-19T00:33:58.524Z,16.13
2019-01-19T00:37:04.182Z,17.27
2019-01-19T00:40:38.595Z,12.50
2019-01-19T00:43:36.119Z,13.47
2019-01-19T00:46:51.599Z,12.47
2019-01-19T00:49:54.247Z,16.33
2019-01-19T00:53:22.506Z,16.87
2019-01-19T00:56:42.103Z,12.27
2019-01-19T00:59:38.476Z,14.03
2019-01-19T01:02:57.728Z,15.23
2019-01-19T01:06:26.858Z,19.13
2019-01-19T01:09:54.624Z,13.30
2019-01-19T01:12:56.463Z,16.73
2019-01-19T01:16:34.634Z,14.93
2019-01-19T01:19:54.361Z,15.73
2019-01-19T01:23:11.667Z,14.80
2019-01-19T01:26:52.595Z,13.87
2019-01-19T01:30:16.911Z,12.23
2019-01-19T01:33:41.923Z,17.20
2019-01-19T01:37:02.386Z,17.67
2019-01-19T01:40:43.527Z,12.73
2019-01-19T01:44:08.591Z,19.20
2019-01-19T01:47:35.266Z,15.67
2019-01-19T01:50:51.720Z,17.77
2019-01-19T01:54:20.840Z,12.20
2019-01-19T01:57:18.655Z,14.67
2019-01-19T02:00:40.503Z,13.77
2019-01-19T02:03:56.173Z,12.77
2019-01-19T02:07:13.772Z,11.47
2019-01-19T02:10:51.293Z,14.03
2019-01-19T02:13:51.927Z,10.90
2019-01-19T02:17:05.811Z,18.80
2019-01-19T02:20:08.932Z,13.63
2019-01-19T02:23:50.388Z,10.77
2019-01-19T02:27:14.231Z,15.13
2019-01-19T02:30:27.799Z,13.93
2019-01-19T02:33:41.629Z,15.77
2019-01-19T02:37:00.828Z,16.90
2019-01-19T02:40:24.944Z,14.47
2019-01-19T02:43:49.874Z,14.87
2019-01-19T02:47:11.066Z,17.20
2019-01-19T02:50:48.478Z,12.87
2019-01-19T02:54:08.002Z,15.23
2019-01-19T02:57:37.409Z,14.53
2019-01-19T03:01:03.808Z,16.77
2019-01-19T03:04:32.818Z,12.83
2019-01-19T03:08:11.335Z,14.87
2019-01-19T03:11:36.233Z,18.03
2019-01-19T03:15:00.039Z,19.27
2019-01-19T03:18:41.708Z,15.13
2019-01-19T03:21:57.366Z,13.97
2019-01-19T03:25:21.767Z,17.13
2019-01-19T03:29:05.980Z,16.07
2019-01-19T03:32:38.443Z,18.37
2019-01-19T03:35:54.412Z,20.50
2019-01-19T03:39:12.181Z,18.47
2019-01-19T03:42:12.145Z,24.87
2019-01-19T03:45:12.869Z,17.13
2019-01-19T03:48:40.671Z,18.60
2019-01-19T03:51:40.936Z,21.73
2019-01-19T03:55:05.580Z,20.07
2019-01-19T03:58:13.266Z,19.80
2019-01-19T04:01:16.082Z,19.87
2019-01-19T04:04:33.966Z,21.53
2019-01-19T04:07:33.644Z,19.23
2019-01-19T04:10:34.274Z,18.97
2019-01-19T04:13:54.603Z,16.93
2019-01-19T04:17:22.193Z,18.20
2019-01-19T04:21:12.751Z,19.60
2019-01-19T04:24:11.912Z,20.20
2019-01-19T04:27:00.120Z,21.60
2019-01-19T04:29:47.640Z,17.83
2019-01-19T04:32:35.680Z,19.83
2019-01-19T04:35:23.764Z,18.73
2019-01-19T04:38:11.665Z,21.97
2019-01-19T04:40:59.582Z,21.83
2019-01-19T04:43:47.614Z,25.50
2019-01-19T04:46:35.327Z,22.53
2019-01-19T04:49:23.242Z,20.60
2019-01-19T04:52:10.827Z,18.03
2019-01-19T04:54:58.723Z,18.83
2019-01-19T04:57:46.696Z,17.97
2019-01-19T05:00:34.981Z,17.17
2019-01-19T05:03:22.864Z,20.40
2019-01-19T05:06:12.578Z,19.83
2019-01-19T05:09:00.372Z,18.97
2019-01-19T05:11:48.124Z,19.93
2019-01-19T05:14:36.048Z,21.67
2019-01-19T05:17:23.834Z,20.60
2019-01-19T05:20:12.539Z,20.70
2019-01-19T05:23:00.642Z,21.40
2019-01-19T05:25:48.475Z,24.83
2019-01-19T05:28:36.470Z,21.93
2019-01-19T05:31:24.875Z,22.00
2019-01-19T05:34:13.111Z,23.57
2019-01-19T05:37:01.457Z,25.80
2019-01-19T05:39:49.306Z,23.47
2019-01-19T05:42:37.300Z,28.00
2019-01-19T05:45:25.205Z,24.20
2019-01-19T05:48:12.783Z,24.20
2019-01-19T05:51:00.628Z,25.70
2019-01-19T05:53:48.350Z,24.00
2019-01-19T05:56:36.210Z,21.33
2019-01-19T05:59:23.774Z,24.70
2019-01-19T06:02:12.192Z,20.63
2019-01-19T06:05:00.362Z,26.70
2019-01-19T06:07:48.480Z,23.40
2019-01-19T06:10:35.923Z,24.50
2019-01-19T06:13:24.040Z,22.97
2019-01-19T06:16:12.718Z,24.90
2019-01-19T06:19:00.893Z,18.13
2019-01-19T06:21:54.232Z,23.70
2019-01-19T06:24:42.090Z,21.80
2019-01-19T06:27:29.968Z,20.77
2019-01-19T06:30:20.500Z,23.43
2019-01-19T06:33:08.625Z,19.03
2019-01-19T06:35:56.861Z,22.17
2019-01-19T06:38:44.911Z,21.37
2019-01-19T06:41:33.075Z,23.13
2019-01-19T06:44:21.137Z,22.30
2019-01-19T06:47:09.466Z,20.63
2019-01-19T06:49:57.258Z,18.50
2019-01-19T06:52:45.449Z,21.50
2019-01-19T06:55:35.318Z,23.50
2019-01-19T06:58:23.324Z,25.57
2019-01-19T07:01:11.424Z,24.77
2019-01-19T07:03:59.583Z,26.10
2019-01-19T07:06:47.774Z,25.30
2019-01-19T07:09:35.887Z,21.57
2019-01-19T07:12:23.729Z,22.40
2019-01-19T07:15:12.622Z,22.73
2019-01-19T07:18:00.367Z,20.57
2019-01-19T07:20:48.218Z,18.57
2019-01-19T07:23:36.616Z,20.53
2019-01-19T07:26:24.444Z,23.90
2019-01-19T07:29:12.694Z,25.23
2019-01-19T07:32:00.677Z,20.80
2019-01-19T07:34:49.200Z,21.67
2019-01-19T07:37:37.128Z,20.67
2019-01-19T07:40:26.116Z,24.43
2019-01-19T07:43:15.747Z,21.40
2019-01-19T07:46:05.327Z,22.17
2019-01-19T07:48:53.263Z,22.43
2019-01-19T07:51:41.081Z,21.80
2019-01-19T07:54:29.092Z,23.47
2019-01-19T07:57:17.272Z,18.17
2019-01-19T08:00:08.858Z,21.07
2019-01-19T08:02:57.372Z,18.93
2019-01-19T08:05:45.438Z,20.80
2019-01-19T08:08:33.587Z,22.00
2019-01-19T08:11:21.635Z,19.80
2019-01-19T08:14:09.264Z,18.23
2019-01-19T08:16:57.075Z,20.23
2019-01-19T08:19:45.545Z,21.17
2019-01-19T08:22:33.385Z,23.10
2019-01-19T08:25:21.915Z,20.50
2019-01-19T08:28:09.639Z,21.73
2019-01-19T08:30:57.239Z,19.63
2019-01-19T08:33:45.192Z,17.57
2019-01-19T08:36:33.204Z,18.10
2019-01-19T08:39:21.105Z,18.97
2019-01-19T08:42:09.450Z,17.13
2019-01-19T08:44:57.456Z,18.57
2019-01-19T08:47:45.685Z,16.83
2019-01-19T08:50:34.039Z,19.20
2019-01-19T08:53:21.957Z,19.30
2019-01-19T08:56:10.201Z,17.33
2019-01-19T08:58:58.062Z,17.27
2019-01-19T09:01:46.252Z,18.47
2019-01-19T09:04:34.490Z,16.90
2019-01-19T09:07:22.416Z,19.80
2019-01-19T09:10:12.730Z,19.17
2019-01-19T09:13:00.560Z,18.20
2019-01-19T09:15:48.562Z,18.80
2019-01-19T09:18:36.441Z,17.10
2019-01-19T09:21:24.381Z,16.93
2019-01-19T09:24:31.062Z,17.93
2019-01-19T09:27:19.459Z,19.57
2019-01-19T09:30:10.901Z,19.23
2019-01-19T09:32:58.792Z,20.57
2019-01-19T09:35:46.745Z,17.77
2019-01-19T09:38:34.835Z,19.77
2019-01-19T09:41:23.242Z,22.60
2019-01-19T09:44:10.691Z,25.67
2019-01-19T09:46:58.259Z,22.53
2019-01-19T09:49:46.392Z,22.00
2019-01-19T09:52:35.217Z,18.70
2019-01-19T09:55:23.149Z,19.03
2019-01-19T09:58:12.549Z,23.70
2019-01-19T10:01:00.545Z,21.90
2019-01-19T10:03:48.470Z,19.00
2019-01-19T10:06:36.524Z,22.40
2019-01-19T10:09:25.385Z,22.93
2019-01-19T10:12:13.171Z,18.53
2019-01-19T10:15:00.774Z,14.37
2019-01-19T10:17:49.037Z,16.90
2019-01-19T10:20:37.118Z,15.77
2019-01-19T10:23:25.306Z,19.37
2019-01-19T10:26:12.920Z,16.83
2019-01-19T10:29:01.441Z,12.43
2019-01-19T10:31:49.502Z,13.70
2019-01-19T10:34:37.123Z,13.90
2019-01-19T10:37:25.323Z,13.10
2019-01-19T10:40:14.280Z,15.50
2019-01-19T10:43:02.244Z,14.40
2019-01-19T10:45:50.379Z,12.63
2019-01-19T10:48:38.345Z,13.73
2019-01-19T10:51:26.886Z,13.70
2019-01-19T10:54:14.427Z,11.13
2019-01-19T10:57:04.623Z,11.33
2019-01-19T10:59:52.706Z,11.10
2019-01-19T11:02:41.332Z,14.17
2019-01-19T11:05:30.405Z,13.50
2019-01-19T11:08:18.529Z,11.20
2019-01-19T11:11:06.233Z,12.70
2019-01-19T11:13:53.850Z,14.57
2019-01-19T11:16:42.989Z,14.17
2019-01-19T11:19:31.040Z,12.43
2019-01-19T11:22:19.117Z,12.00
2019-01-19T11:25:06.823Z,14.20
2019-01-19T11:27:54.764Z,14.73
2019-01-19T11:30:46.001Z,13.07
2019-01-19T11:33:34.147Z,11.90
2019-01-19T11:36:22.162Z,16.07
2019-01-19T11:39:10.046Z,16.43
2019-01-19T11:41:58.158Z,13.67
2019-01-19T11:44:45.827Z,14.27
2019-01-19T11:47:33.715Z,12.40
2019-01-19T11:50:22.692Z,12.13
2019-01-19T11:53:10.846Z,13.17
2019-01-19T11:55:58.611Z,12.30
2019-01-19T11:58:46.718Z,13.23
2019-01-19T12:01:34.502Z,12.63
2019-01-19T12:04:22.810Z,12.40
2019-01-19T12:07:11.242Z,13.33
2019-01-19T12:09:59.110Z,14.30
2019-01-19T12:12:47.211Z,14.77
2019-01-19T12:15:35.124Z,12.10
2019-01-19T12:18:23.656Z,13.93
2019-01-19T12:21:12.033Z,12.53
2019-01-19T12:24:00.250Z,12.37
2019-01-19T12:26:48.158Z,16.03
2019-01-19T12:29:37.158Z,14.57
2019-01-19T12:32:25.440Z,15.57
2019-01-19T12:35:13.456Z,12.07
2019-01-19T12:38:01.732Z,14.37
2019-01-19T12:40:49.544Z,14.30
2019-01-19T12:43:37.504Z,14.37
2019-01-19T12:46:25.311Z,14.23
2019-01-19T12:49:14.267Z,13.97
2019-01-19T12:52:01.813Z,14.90
2019-01-19T12:54:50.081Z,15.77
2019-01-19T12:57:37.867Z,14.67
2019-01-19T13:00:26.718Z,15.63
2019-01-19T13:03:15.060Z,14.30
2019-01-19T13:06:30.088Z,17.20
2019-01-19T13:09:30.044Z,13.03
2019-01-19T13:12:57.725Z,14.20
2019-01-19T13:16:39.041Z,17.33
2019-01-19T13:19:53.685Z,15.43
2019-01-19T13:23:21.725Z,14.77
2019-01-19T13:27:04.576Z,14.03
2019-01-19T13:30:20.984Z,13.50
2019-01-19T13:33:29.308Z,16.23
2019-01-19T13:36:47.478Z,17.77
2019-01-19T13:40:07.886Z,14.97
2019-01-19T13:43:31.560Z,15.07
2019-01-19T13:47:18.769Z,15.37
2019-01-19T13:50:37.291Z,14.70
2019-01-19T13:54:02.356Z,13.93
2019-01-19T13:57:13.170Z,19.57
2019-01-19T14:00:47.041Z,15.33
2019-01-19T14:03:50.046Z,17.77
2019-01-19T14:07:15.072Z,14.53
2019-01-19T14:10:28.848Z,16.30
2019-01-19T14:14:16.240Z,19.97
2019-01-19T14:17:28.988Z,17.87
2019-01-19T14:20:38.537Z,14.10
2019-01-19T14:23:39.024Z,14.97
2019-01-19T14:26:48.281Z,14.57
2019-01-19T14:30:29.097Z,14.67
2019-01-19T14:33:46.673Z,15.87
2019-01-19T14:37:02.719Z,15.83
2019-01-19T14:40:32.480Z,17.40
2019-01-19T14:44:04.976Z,18.47
2019-01-19T14:47:04.753Z,14.63
2019-01-19T14:50:38.536Z,20.27
2019-01-19T14:53:58.077Z,16.47
2019-01-19T14:57:28.366Z,15.50
2019-01-19T15:01:11.433Z,18.00
2019-01-19T15:04:19.694Z,13.80
2019-01-19T15:07:35.457Z,15.43
2019-01-19T15:10:52.087Z,16.67
2019-01-19T15:14:01.067Z,17.20
2019-01-19T15:17:51.348Z,15.37
2019-01-19T15:21:04.272Z,14.23
2019-01-19T15:24:04.236Z,19.00
2019-01-19T15:27:25.479Z,15.93
2019-01-19T15:30:54.834Z,13.07
2019-01-19T15:34:19.734Z,15.10
2019-01-19T15:37:55.899Z,20.97
2019-01-19T15:41:26.793Z,15.40
2019-01-19T15:44:39.895Z,12.90
2019-01-19T15:47:56.133Z,14.93
2019-01-19T15:51:02.614Z,12.70
2019-01-19T15:54:15.816Z,16.60
2019-01-19T15:57:31.859Z,14.10
2019-01-19T16:00:39.104Z,14.27
2019-01-19T16:03:50.437Z,15.37
2019-01-19T16:07:34.665Z,15.07
2019-01-19T16:10:57.439Z,13.30
2019-01-19T16:14:17.965Z,13.83
2019-01-19T16:17:53.267Z,19.13
2019-01-19T16:21:06.879Z,16.40
2019-01-19T16:24:32.453Z,14.63
2019-01-19T16:27:46.546Z,14.50
2019-01-19T16:31:23.378Z,15.87
2019-01-19T16:34:39.450Z,15.80
2019-01-19T16:37:56.053Z,13.90
2019-01-19T16:41:06.207Z,17.47
2019-01-19T16:44:30.025Z,16.10
2019-01-19T16:47:58.885Z,14.37
2019-01-19T16:51:43.053Z,14.50
2019-01-19T16:55:14.841Z,15.00
2019-01-19T16:58:26.910Z,16.40
2019-01-19T17:01:59.683Z,19.03
2019-01-19T17:05:16.964Z,15.87
2019-01-19T17:08:43.468Z,19.57
2019-01-19T17:11:54.571Z,23.17
2019-01-19T17:15:20.390Z,23.60
2019-01-19T17:18:39.838Z,23.47
2019-01-19T17:22:01.311Z,21.93
2019-01-19T17:25:17.323Z,26.13
2019-01-19T17:28:51.538Z,23.33
2019-01-19T17:32:11.204Z,22.70
2019-01-19T17:36:07.659Z,22.80
2019-01-19T17:39:50.403Z,22.77
2019-01-19T17:43:13.163Z,26.73
2019-01-19T17:46:36.415Z,23.77
2019-01-19T17:49:54.187Z,28.27
2019-01-19T17:53:17.958Z,24.77
2019-01-19T17:56:31.266Z,29.03
2019-01-19T17:59:45.088Z,29.70
2019-01-19T18:02:53.946Z,31.07
2019-01-19T18:06:09.572Z,31.27
2019-01-19T18:09:18.911Z,31.93
2019-01-19T18:12:46.745Z,29.27
2019-01-19T18:15:55.404Z,27.17
2019-01-19T18:19:31.842Z,25.83
2019-01-19T18:23:12.930Z,22.57
2019-01-19T18:26:39.222Z,23.20
2019-01-19T18:30:16.284Z,22.67
2019-01-19T18:33:55.417Z,23.10
2019-01-19T18:37:24.237Z,20.53
2019-01-19T18:40:56.020Z,21.53
2019-01-19T18:44:19.838Z,22.10
2019-01-19T18:47:46.742Z,21.07
2019-01-19T18:51:07.091Z,18.13
2019-01-19T18:54:48.339Z,22.50
2019-01-19T18:58:23.738Z,24.97
2019-01-19T19:01:54.602Z,18.83
2019-01-19T19:05:33.654Z,18.33
2019-01-19T19:08:58.662Z,20.03
2019-01-19T19:12:30.927Z,19.67
2019-01-19T19:16:02.089Z,20.90
2019-01-19T19:19:08.732Z,19.50
2019-01-19T19:22:41.042Z,18.90
2019-01-19T19:26:11.171Z,22.50
2019-01-19T19:29:22.255Z,18.77
2019-01-19T19:32:41.280Z,20.83
2019-01-19T19:36:05.358Z,23.60
2019-01-19T19:39:36.540Z,26.23
2019-01-19T19:43:23.715Z,27.77
2019-01-19T19:46:43.270Z,25.53
2019-01-19T19:49:57.995Z,23.00
2019-01-19T19:52:46.222Z,21.80
2019-01-19T19:55:32.550Z,24.23
2019-01-19T19:58:21.604Z,24.30
2019-01-19T20:01:11.416Z,23.07
2019-01-19T20:03:59.233Z,22.33
2019-01-19T20:06:46.982Z,25.03
2019-01-19T20:09:35.002Z,26.63
2019-01-19T20:12:23.111Z,24.43
2019-01-19T20:15:11.592Z,23.33
2019-01-19T20:17:59.428Z,21.73
2019-01-19T20:20:47.303Z,24.47
2019-01-19T20:23:35.263Z,24.40
2019-01-19T20:26:23.227Z,24.23
2019-01-19T20:29:11.245Z,21.57
2019-01-19T20:31:59.518Z,29.13
2019-01-19T20:34:47.399Z,27.33
2019-01-19T20:37:35.507Z,22.63
2019-01-19T20:40:24.421Z,23.63
2019-01-19T20:43:12.920Z,23.80
2019-01-19T20:46:01.005Z,24.90
2019-01-19T20:48:48.683Z,23.83
2019-01-19T20:51:36.451Z,25.47
2019-01-19T20:54:24.493Z,27.53
2019-01-19T20:57:12.429Z,25.03
2019-01-19T21:00:00.665Z,21.90
2019-01-19T21:02:48.859Z,26.30
2019-01-19T21:05:36.689Z,20.30
2019-01-19T21:08:24.263Z,22.20
2019-01-19T21:11:12.342Z,22.20
2019-01-19T21:14:00.571Z,24.00
2019-01-19T21:16:48.878Z,24.63
2019-01-19T21:19:37.018Z,25.90
2019-01-19T21:22:24.770Z,25.83
2019-01-19T21:25:13.097Z,25.13
2019-01-19T21:28:03.657Z,24.57
2019-01-19T21:30:51.811Z,27.43
2019-01-19T21:33:39.903Z,26.97
2019-01-19T21:36:28.043Z,34.90
2019-01-19T21:39:16.100Z,33.30
2019-01-19T21:42:03.925Z,32.47
2019-01-19T21:44:51.572Z,34.27
2019-01-19T21:47:39.803Z,25.87
2019-01-19T21:50:27.739Z,30.60
2019-01-19T21:53:15.724Z,33.50
2019-01-19T21:56:03.614Z,27.27
2019-01-19T21:58:51.475Z,29.80
2019-01-19T22:01:39.823Z,30.87
2019-01-19T22:04:27.830Z,30.27
2019-01-19T22:07:15.475Z,34.97
2019-01-19T22:10:03.575Z,33.80
2019-01-19T22:12:51.410Z,33.03
2019-01-19T22:15:39.575Z,37.70
2019-01-19T22:18:28.304Z,38.90
2019-01-19T22:21:16.524Z,36.93
2019-01-19T22:24:04.524Z,36.80
2019-01-19T22:26:53.763Z,32.57
2019-01-19T22:29:41.909Z,33.40
2019-01-19T22:32:31.145Z,33.93
2019-01-19T22:35:19.138Z,30.47
2019-01-19T22:38:06.866Z,29.70
2019-01-19T22:40:54.882Z,26.73
2019-01-19T22:43:43.004Z,34.13
2019-01-19T22:46:30.989Z,28.90
2019-01-19T22:49:19.141Z,29.07
2019-01-19T22:52:07.079Z,26.47
2019-01-19T22:54:54.878Z,28.57
2019-01-19T22:57:43.240Z,29.20
2019-01-19T23:00:58.132Z,32.03
2019-01-19T23:03:46.239Z,30.97
2019-01-19T23:06:33.847Z,28.23
2019-01-19T23:09:22.059Z,29.80
2019-01-19T23:12:10.050Z,30.83
2019-01-19T23:14:58.242Z,32.83
2019-01-19T23:17:47.479Z,29.50
2019-01-19T23:20:35.375Z,32.70
2019-01-19T23:23:23.072Z,34.87
2019-01-19T23:26:11.728Z,34.30
2019-01-19T23:28:59.146Z,34.87
2019-01-19T23:31:47.439Z,34.27
2019-01-19T23:34:35.112Z,32.27
2019-01-19T23:37:22.810Z,33.77
2019-01-19T23:40:11.005Z,28.20
2019-01-19T23:42:59.057Z,34.07
2019-01-19T23:45:46.843Z,37.50
2019-01-19T23:48:35.070Z,37.17
2019-01-19T23:51:24.517Z,41.37
2019-01-19T23:54:12.503Z,42.27
2019-01-19T23:57:00.675Z,45.13
2019-01-19T23:59:48.598Z,42.53
